Doblas, Argentina
Current Conditions -  °F | °C
As of 1:00 AM on Monday 20 Oct 2014 (Local Time) from SAZN Reporting Station
Light Rain Light Rain  
Wind Chill: 15°   Ceiling: 10000
Heat Index: 15°   Visibility: 6mi
Dew Point:   Wind: 0mph
Humidity: 63%   Direction: NA
Pressure: 30.03"   Gusts: NA
Location:  37.16°S, 63.72°W
Report Text: SAZN 200400Z 00000KT 9999 -RA SCT045 BKN100 15/08 Q1017
Loading
Personal Weather Stations






























Interactive Weather Map
Tropical Storm Tracking
New forecast layout! Learn more

10-Day Weather Forecast

Advertisements
Track Severe Weather on mobile